Time;durP1;ratioP1;P1;durP2;ratioP2;P2;SDS_P1;SDS_P2;PMS_P1;PMS_P2;Temp;Humidity;BMP_temperature;BMP_pressure;BME280_temperature;BME280_humidity;BME280_pressure;Samples;Min_cycle;Max_cycle;Signal;HPM_P1;HPM_P2
2023/10/03 00:00:31;;;;;;;13.32;6.90;;;;;;;;;;5090905;28;20484;-70
2023/10/03 00:03:01;;;;;;;13.23;7.60;;;;;;;;;;5090163;28;20043;-70
2023/10/03 00:05:28;;;;;;;13.15;8.13;;;;;;;;;;5090271;28;20108;-70
2023/10/03 00:07:59;;;;;;;16.27;7.97;;;;;;;;;;5090665;28;20190;-70
2023/10/03 00:10:28;;;;;;;11.45;6.75;;;;;;;;;;5070195;28;20041;-70
2023/10/03 00:12:54;;;;;;;14.95;7.63;;;;;;;;;;5069033;28;20119;-70
2023/10/03 00:15:24;;;;;;;16.35;6.85;;;;;;;;;;5089589;28;20489;-70
2023/10/03 00:17:54;;;;;;;11.75;7.32;;;;;;;;;;5090553;28;20040;-70
2023/10/03 00:20:22;;;;;;;13.90;7.53;;;;;;;;;;5090344;28;20076;-72
2023/10/03 00:22:50;;;;;;;16.42;7.53;;;;;;;;;;5090255;28;20547;-70
2023/10/03 00:25:19;;;;;;;12.88;7.20;;;;;;;;;;5089596;28;20020;-71
2023/10/03 00:27:51;;;;;;;11.18;6.75;;;;;;;;;;5090506;28;20093;-71
2023/10/03 00:30:23;;;;;;;14.15;6.95;;;;;;;;;;5089248;28;20093;-71
2023/10/03 00:32:51;;;;;;;12.23;7.93;;;;;;;;;;5090168;28;20032;-71
2023/10/03 00:35:19;;;;;;;12.98;7.53;;;;;;;;;;5088524;28;20024;-71
2023/10/03 00:37:46;;;;;;;10.75;7.35;;;;;;;;;;5088403;28;20537;-71
2023/10/03 00:40:27;;;;;;;14.90;7.15;;;;;;;;;;5088453;28;20031;-71
2023/10/03 00:42:59;;;;;;;10.60;6.93;;;;;;;;;;5068440;28;20494;-71
2023/10/03 00:45:26;;;;;;;10.85;7.40;;;;;;;;;;5084750;28;20039;-71
2023/10/03 00:47:53;;;;;;;15.10;7.68;;;;;;;;;;5089986;28;20035;-71
2023/10/03 00:50:20;;;;;;;9.95;7.32;;;;;;;;;;5089596;28;20606;-71
2023/10/03 00:52:55;;;;;;;13.93;6.63;;;;;;;;;;5088084;28;20024;-71
2023/10/03 00:55:29;;;;;;;16.40;7.97;;;;;;;;;;5086617;28;20032;-71
2023/10/03 00:58:12;;;;;;;;;;;;;;;;;;5088940;28;20039;-69
2023/10/03 01:00:50;;;;;;;12.70;7.55;;;;;;;;;;5088263;28;19924;-71
2023/10/03 01:03:28;;;;;;;11.88;7.85;;;;;;;;;;5089818;28;20086;-71
2023/10/03 01:05:58;;;;;;;13.95;7.53;;;;;;;;;;5068887;28;20399;-70
2023/10/03 01:08:29;;;;;;;13.23;7.38;;;;;;;;;;5074945;28;20039;-71
2023/10/03 01:10:55;;;;;;;12.50;7.25;;;;;;;;;;5088847;28;20119;-70
2023/10/03 01:13:23;;;;;;;13.32;7.65;;;;;;;;;;5089235;28;20023;-69
2023/10/03 01:15:50;;;;;;;13.88;7.32;;;;;;;;;;5068147;28;20045;-70
2023/10/03 01:18:22;;;;;;;18.60;7.43;;;;;;;;;;5068815;28;20330;-70
2023/10/03 01:20:57;;;;;;;12.52;7.45;;;;;;;;;;5088141;28;20241;-70
2023/10/03 01:23:26;;;;;;;11.73;7.15;;;;;;;;;;5089469;28;20486;-70
2023/10/03 01:25:52;;;;;;;12.93;7.55;;;;;;;;;;5088906;28;20404;-70
2023/10/03 01:28:19;;;;;;;15.90;8.10;;;;;;;;;;5087793;28;20097;-70
2023/10/03 01:30:44;;;;;;;13.35;7.22;;;;;;;;;;5089085;28;20046;-71
2023/10/03 01:33:11;;;;;;;11.57;7.10;;;;;;;;;;5089295;28;20035;-70
2023/10/03 01:35:37;;;;;;;11.50;7.00;;;;;;;;;;5070558;28;20028;-72
2023/10/03 01:38:05;;;;;;;12.93;7.13;;;;;;;;;;5089207;28;20063;-72
2023/10/03 01:40:31;;;;;;;10.82;6.90;;;;;;;;;;5087688;28;20059;-71
2023/10/03 01:42:57;;;;;;;12.85;6.50;;;;;;;;;;5089184;28;20249;-71
2023/10/03 01:45:26;;;;;;;13.63;5.97;;;;;;;;;;5086835;28;20114;-72
2023/10/03 01:47:54;;;;;;;14.23;5.93;;;;;;;;;;5089304;28;20073;-71
2023/10/03 01:50:21;;;;;;;10.00;5.65;;;;;;;;;;5087400;28;20082;-71
2023/10/03 01:52:48;;;;;;;9.95;5.75;;;;;;;;;;5087610;28;20040;-71
2023/10/03 01:55:17;;;;;;;12.02;5.93;;;;;;;;;;5087058;28;20092;-71
2023/10/03 01:57:46;;;;;;;9.60;5.53;;;;;;;;;;5087545;28;20040;-71
2023/10/03 02:00:26;;;;;;;11.88;5.90;;;;;;;;;;5087094;28;20032;-71
2023/10/03 02:02:54;;;;;;;9.98;5.35;;;;;;;;;;5088540;28;20332;-72
2023/10/03 02:05:24;;;;;;;10.07;5.13;;;;;;;;;;5086642;28;20263;-70
2023/10/03 02:07:51;;;;;;;10.57;5.22;;;;;;;;;;5085787;28;20072;-71
2023/10/03 02:10:18;;;;;;;10.57;5.70;;;;;;;;;;5087062;28;20031;-71
2023/10/03 02:12:51;;;;;;;9.73;5.45;;;;;;;;;;5088737;28;20066;-70
2023/10/03 02:15:23;;;;;;;9.23;5.10;;;;;;;;;;5087024;28;20081;-71
2023/10/03 02:17:57;;;;;;;12.48;5.22;;;;;;;;;;5087049;28;20042;-71
2023/10/03 02:20:25;;;;;;;9.13;4.67;;;;;;;;;;5088565;28;20055;-70
2023/10/03 02:22:57;;;;;;;9.48;4.93;;;;;;;;;;5088446;28;20260;-70
2023/10/03 02:25:30;;;;;;;7.50;4.32;;;;;;;;;;5087070;28;20410;-71
2023/10/03 02:27:57;;;;;;;8.65;4.28;;;;;;;;;;5087074;28;20474;-72
2023/10/03 02:30:27;;;;;;;8.95;5.13;;;;;;;;;;5091442;28;20024;-70
2023/10/03 02:33:02;;;;;;;10.77;4.63;;;;;;;;;;5092000;28;20455;-70
2023/10/03 02:35:28;;;;;;;9.43;4.57;;;;;;;;;;5092026;28;20115;-71
2023/10/03 02:37:58;;;;;;;8.73;4.35;;;;;;;;;;5092332;28;20541;-70
2023/10/03 02:40:27;;;;;;;8.23;4.65;;;;;;;;;;5090896;28;20056;-70
2023/10/03 02:42:54;;;;;;;12.30;5.00;;;;;;;;;;5090580;28;20038;-70
2023/10/03 02:45:23;;;;;;;9.75;4.40;;;;;;;;;;5090428;28;20040;-70
2023/10/03 02:50:52;;;;;;;8.73;5.05;;;;;;;;;;5090709;28;20557;-70
2023/10/03 02:53:21;;;;;;;9.57;4.65;;;;;;;;;;5090478;28;20470;-71
2023/10/03 02:55:49;;;;;;;9.38;4.68;;;;;;;;;;5090651;28;20650;-71
2023/10/03 02:58:16;;;;;;;10.55;5.32;;;;;;;;;;5090457;28;20028;-70
2023/10/03 03:00:46;;;;;;;11.98;5.00;;;;;;;;;;5090459;28;20512;-71
2023/10/03 03:03:14;;;;;;;11.00;5.78;;;;;;;;;;5090632;28;20024;-72
2023/10/03 03:05:43;;;;;;;10.70;4.55;;;;;;;;;;5090238;28;20040;-71
2023/10/03 03:10:57;;;;;;;10.10;5.32;;;;;;;;;;5090367;28;20055;-71
2023/10/03 03:13:32;;;;;;;8.63;4.78;;;;;;;;;;5086458;28;20036;-70
2023/10/03 03:16:03;;;;;;;9.93;4.40;;;;;;;;;;5083532;28;20111;-71
2023/10/03 03:18:40;;;;;;;10.20;5.00;;;;;;;;;;5091550;28;20374;-70
2023/10/03 03:21:13;;;;;;;10.80;5.38;;;;;;;;;;5095407;28;20089;-70
2023/10/03 03:23:42;;;;;;;14.02;4.57;;;;;;;;;;5095277;28;20043;-72
2023/10/03 03:26:17;;;;;;;12.35;5.18;;;;;;;;;;5095009;28;20028;-71
2023/10/03 03:28:45;;;;;;;13.05;4.93;;;;;;;;;;5095025;28;20024;-71
2023/10/03 03:31:22;;;;;;;18.00;5.55;;;;;;;;;;5099084;28;20024;-71
2023/10/03 03:33:57;;;;;;;8.63;4.57;;;;;;;;;;5104441;28;20038;-70
2023/10/03 03:36:29;;;;;;;8.57;4.60;;;;;;;;;;5103293;28;20047;-70
2023/10/03 03:38:56;;;;;;;10.70;4.70;;;;;;;;;;5086849;28;20038;-70
2023/10/03 03:41:22;;;;;;;7.53;4.28;;;;;;;;;;5094804;28;20105;-71
2023/10/03 03:43:49;;;;;;;8.00;5.03;;;;;;;;;;5095047;28;20035;-71
2023/10/03 03:46:20;;;;;;;9.25;5.18;;;;;;;;;;5093797;28;20020;-71
2023/10/03 03:48:46;;;;;;;9.07;4.57;;;;;;;;;;5095139;28;20035;-71
2023/10/03 03:51:14;;;;;;;10.63;5.07;;;;;;;;;;5094716;28;20032;-71
2023/10/03 03:53:42;;;;;;;15.68;6.15;;;;;;;;;;5094558;28;20040;-71
2023/10/03 03:56:08;;;;;;;16.60;7.90;;;;;;;;;;5094554;28;20064;-70
2023/10/03 03:58:37;;;;;;;11.52;5.15;;;;;;;;;;5094867;28;20031;-71
2023/10/03 04:01:10;;;;;;;9.20;5.10;;;;;;;;;;5093944;28;20043;-71
2023/10/03 04:03:36;;;;;;;;;;;;;;;;;;5094633;28;20032;-71
2023/10/03 04:06:02;;;;;;;11.25;5.32;;;;;;;;;;5094473;28;19915;-71
2023/10/03 04:08:28;;;;;;;11.70;5.38;;;;;;;;;;5094340;28;20038;-69
2023/10/03 04:10:53;;;;;;;11.50;5.15;;;;;;;;;;5094377;28;20016;-69
2023/10/03 04:13:20;;;;;;;13.10;5.85;;;;;;;;;;5094601;28;20048;-70
2023/10/03 04:15:47;;;;;;;12.68;4.82;;;;;;;;;;5096800;28;20399;-69
2023/10/03 04:18:15;;;;;;;9.75;5.05;;;;;;;;;;5094073;28;20036;-70
2023/10/03 04:20:44;;;;;;;10.85;5.03;;;;;;;;;;5094188;28;20028;-71
2023/10/03 04:23:11;;;;;;;12.88;5.47;;;;;;;;;;5093686;28;20032;-71
2023/10/03 04:25:39;;;;;;;14.77;6.28;;;;;;;;;;5093240;28;20024;-70
2023/10/03 04:28:05;;;;;;;16.15;5.72;;;;;;;;;;5093730;28;20040;-71
2023/10/03 04:30:31;;;;;;;15.48;5.75;;;;;;;;;;5093072;28;20181;-71
2023/10/03 04:33:04;;;;;;;13.13;5.97;;;;;;;;;;5093650;28;20374;-71
2023/10/03 04:35:30;;;;;;;14.80;5.88;;;;;;;;;;5074896;28;20113;-70
2023/10/03 04:37:57;;;;;;;14.60;5.25;;;;;;;;;;5093442;28;20031;-72
2023/10/03 04:40:37;;;;;;;18.65;6.40;;;;;;;;;;5093629;28;20046;-72
2023/10/03 04:43:10;;;;;;;19.90;5.75;;;;;;;;;;5093886;28;20405;-70
2023/10/03 04:45:40;;;;;;;9.85;5.35;;;;;;;;;;5093567;28;20094;-70
2023/10/03 04:48:07;;;;;;;24.90;6.10;;;;;;;;;;5093842;28;20541;-70
2023/10/03 04:50:35;;;;;;;16.08;7.30;;;;;;;;;;5094041;28;20543;-70
2023/10/03 04:53:02;;;;;;;24.77;8.13;;;;;;;;;;5093279;28;20089;-70
2023/10/03 04:55:28;;;;;;;15.27;6.15;;;;;;;;;;5093467;28;20036;-70
2023/10/03 04:57:55;;;;;;;14.63;6.57;;;;;;;;;;5093294;28;20036;-73
2023/10/03 05:00:24;;;;;;;13.38;5.82;;;;;;;;;;5093013;28;20488;-73
2023/10/03 05:02:52;;;;;;;18.27;7.45;;;;;;;;;;5093199;28;20115;-73
2023/10/03 05:05:25;;;;;;;15.57;6.32;;;;;;;;;;5091448;28;20477;-71
2023/10/03 05:07:53;;;;;;;16.95;8.00;;;;;;;;;;5092969;28;20036;-72
2023/10/03 05:10:20;;;;;;;12.18;6.15;;;;;;;;;;5092927;28;20486;-73
2023/10/03 05:12:48;;;;;;;13.18;6.45;;;;;;;;;;5092763;28;20040;-74
2023/10/03 05:15:16;;;;;;;15.25;6.22;;;;;;;;;;5092695;28;20119;-73
2023/10/03 05:17:44;;;;;;;20.83;7.15;;;;;;;;;;5092983;28;20024;-73
2023/10/03 05:20:15;;;;;;;19.33;7.22;;;;;;;;;;5093169;28;20499;-73
2023/10/03 05:22:41;;;;;;;14.55;6.50;;;;;;;;;;5093401;28;20040;-72
2023/10/03 05:25:12;;;;;;;14.48;6.28;;;;;;;;;;5092657;28;20022;-73
2023/10/03 05:27:42;;;;;;;15.52;6.45;;;;;;;;;;5092346;28;20032;-73
2023/10/03 05:30:14;;;;;;;13.32;6.78;;;;;;;;;;5091188;28;20607;-73
2023/10/03 05:32:42;;;;;;;14.30;5.65;;;;;;;;;;5092322;28;20146;-73
2023/10/03 05:35:09;;;;;;;11.25;5.85;;;;;;;;;;5091896;28;20076;-73
2023/10/03 05:37:35;;;;;;;10.82;5.75;;;;;;;;;;5092369;28;20397;-71
2023/10/03 05:40:11;;;;;;;12.07;5.25;;;;;;;;;;5092151;28;20111;-73
2023/10/03 05:42:41;;;;;;;10.35;5.80;;;;;;;;;;5091604;28;20028;-72
2023/10/03 05:45:12;;;;;;;17.70;6.57;;;;;;;;;;5092336;28;20043;-72
2023/10/03 05:47:45;;;;;;;13.05;5.10;;;;;;;;;;5092214;28;20183;-71
2023/10/03 05:50:14;;;;;;;11.05;5.72;;;;;;;;;;5110753;28;20071;-72
2023/10/03 05:52:40;;;;;;;9.80;5.95;;;;;;;;;;5100400;28;20524;-72
2023/10/03 05:55:07;;;;;;;13.10;6.13;;;;;;;;;;5112311;28;20041;-71
2023/10/03 05:57:33;;;;;;;14.60;6.97;;;;;;;;;;5112187;28;20485;-72
2023/10/03 06:00:00;;;;;;;10.13;6.18;;;;;;;;;;5112408;28;20538;-73
2023/10/03 06:02:26;;;;;;;10.68;6.63;;;;;;;;;;5112396;28;20023;-73
2023/10/03 06:04:53;;;;;;;10.52;6.35;;;;;;;;;;5111553;28;20032;-72
2023/10/03 06:07:20;;;;;;;12.77;7.18;;;;;;;;;;5112310;28;20023;-74
2023/10/03 06:09:48;;;;;;;14.93;7.50;;;;;;;;;;5104787;28;20028;-71
2023/10/03 06:12:13;;;;;;;12.32;6.45;;;;;;;;;;5101060;28;20047;-71
2023/10/03 06:14:40;;;;;;;11.75;6.40;;;;;;;;;;5101849;28;20421;-72
2023/10/03 06:17:07;;;;;;;11.85;6.55;;;;;;;;;;5100631;28;20020;-72
2023/10/03 06:19:33;;;;;;;13.35;6.85;;;;;;;;;;5098530;28;20525;-71
2023/10/03 06:21:59;;;;;;;12.48;7.43;;;;;;;;;;5093941;28;20328;-72
2023/10/03 06:24:27;;;;;;;13.82;7.60;;;;;;;;;;5091192;28;20089;-71
2023/10/03 06:26:52;;;;;;;11.18;6.28;;;;;;;;;;5091324;28;20493;-71
2023/10/03 06:29:20;;;;;;;13.32;6.85;;;;;;;;;;5091354;28;20070;-73
2023/10/03 06:31:46;;;;;;;11.55;7.22;;;;;;;;;;5090006;28;20040;-73
2023/10/03 06:34:12;;;;;;;12.63;7.00;;;;;;;;;;5091257;28;20051;-72
2023/10/03 06:36:38;;;;;;;10.43;5.90;;;;;;;;;;5091649;28;20481;-70
2023/10/03 06:39:05;;;;;;;14.88;6.60;;;;;;;;;;5091072;28;20115;-72
2023/10/03 06:41:31;;;;;;;11.52;6.40;;;;;;;;;;5090706;28;20148;-72
2023/10/03 06:44:00;;;;;;;12.85;5.80;;;;;;;;;;5089563;28;20060;-73
2023/10/03 06:46:26;;;;;;;13.20;6.30;;;;;;;;;;5090908;28;20072;-74
2023/10/03 06:48:52;;;;;;;13.40;6.43;;;;;;;;;;5090102;28;20044;-74
2023/10/03 06:51:18;;;;;;;15.93;6.43;;;;;;;;;;5091563;28;20037;-74
2023/10/03 06:53:47;;;;;;;15.45;7.10;;;;;;;;;;5085359;28;20056;-74
2023/10/03 06:56:13;;;;;;;13.20;7.65;;;;;;;;;;5083270;28;20020;-74
2023/10/03 06:58:39;;;;;;;20.83;8.70;;;;;;;;;;5091672;28;20028;-74
2023/10/03 07:01:05;;;;;;;13.70;7.43;;;;;;;;;;5091314;28;20073;-73
2023/10/03 07:03:31;;;;;;;12.20;7.03;;;;;;;;;;5091125;28;20055;-74
2023/10/03 07:05:57;;;;;;;13.25;6.18;;;;;;;;;;5089895;28;20509;-72
2023/10/03 07:08:25;;;;;;;16.10;7.70;;;;;;;;;;5091358;28;20469;-75
2023/10/03 07:10:51;;;;;;;18.35;9.30;;;;;;;;;;5091013;28;20050;-74
2023/10/03 07:13:17;;;;;;;14.95;8.32;;;;;;;;;;5090734;28;20038;-74
2023/10/03 07:15:44;;;;;;;14.90;7.47;;;;;;;;;;5090574;28;20365;-74
2023/10/03 07:18:10;;;;;;;13.15;8.32;;;;;;;;;;5090866;28;20107;-73
2023/10/03 07:20:36;;;;;;;14.82;8.73;;;;;;;;;;5090858;28;20115;-73
2023/10/03 07:23:02;;;;;;;12.88;8.38;;;;;;;;;;5086768;28;20116;-73
2023/10/03 07:25:31;;;;;;;12.45;7.85;;;;;;;;;;5090650;28;20031;-73
2023/10/03 07:27:56;;;;;;;14.88;7.82;;;;;;;;;;5090723;28;20115;-73
2023/10/03 07:30:22;;;;;;;15.43;8.18;;;;;;;;;;5090470;28;20098;-73
2023/10/03 07:32:48;;;;;;;13.77;8.23;;;;;;;;;;5091053;28;20039;-73
2023/10/03 07:35:17;;;;;;;15.63;9.13;;;;;;;;;;5090844;28;20454;-73
2023/10/03 07:37:43;;;;;;;13.52;8.32;;;;;;;;;;5090654;28;20372;-72
2023/10/03 07:40:09;;;;;;;16.38;8.85;;;;;;;;;;5091162;28;20107;-76
2023/10/03 07:42:35;;;;;;;13.77;7.65;;;;;;;;;;5090710;28;20382;-74
2023/10/03 07:45:02;;;;;;;13.13;7.78;;;;;;;;;;5088923;28;20442;-74
2023/10/03 07:47:28;;;;;;;14.23;7.55;;;;;;;;;;5090538;28;20489;-74
2023/10/03 07:49:54;;;;;;;14.50;7.82;;;;;;;;;;5090192;28;20016;-74
2023/10/03 07:52:22;;;;;;;15.05;7.78;;;;;;;;;;5090381;28;20627;-74
2023/10/03 07:54:55;;;;;;;13.30;7.75;;;;;;;;;;5090144;28;20039;-73
2023/10/03 07:57:25;;;;;;;14.68;9.27;;;;;;;;;;5083301;28;20385;-74
2023/10/03 07:59:52;;;;;;;14.07;7.85;;;;;;;;;;5090309;28;20043;-74
2023/10/03 08:02:18;;;;;;;15.23;8.75;;;;;;;;;;5090500;28;20016;-74
2023/10/03 08:04:46;;;;;;;12.32;8.18;;;;;;;;;;5090668;28;20375;-74
2023/10/03 08:07:22;;;;;;;14.52;8.85;;;;;;;;;;5093949;28;20027;-75
2023/10/03 08:09:51;;;;;;;13.13;8.20;;;;;;;;;;5093724;28;20051;-74
2023/10/03 08:12:26;;;;;;;14.40;8.00;;;;;;;;;;5080461;28;20395;-73
2023/10/03 08:14:53;;;;;;;19.98;9.05;;;;;;;;;;5094093;28;20133;-74
2023/10/03 08:17:31;;;;;;;16.95;7.90;;;;;;;;;;5094319;28;20020;-75
2023/10/03 08:19:57;;;;;;;11.68;6.57;;;;;;;;;;5092296;28;20035;-74
2023/10/03 08:22:22;;;;;;;8.85;6.05;;;;;;;;;;5085223;28;20023;-73
2023/10/03 08:24:49;;;;;;;35.00;8.13;;;;;;;;;;5093260;28;20044;-75
2023/10/03 08:27:18;;;;;;;11.93;6.32;;;;;;;;;;5093013;28;20107;-74
2023/10/03 08:29:50;;;;;;;24.08;7.05;;;;;;;;;;5092776;28;20035;-74
2023/10/03 08:32:17;;;;;;;10.60;6.53;;;;;;;;;;5093265;28;20032;-75
2023/10/03 08:34:46;;;;;;;43.28;8.75;;;;;;;;;;5092695;28;20020;-73
2023/10/03 08:37:21;;;;;;;24.65;7.35;;;;;;;;;;5093425;28;20118;-74
2023/10/03 08:39:51;;;;;;;27.73;7.20;;;;;;;;;;5093319;28;20500;-74
2023/10/03 08:42:20;;;;;;;13.13;7.10;;;;;;;;;;5091950;28;20490;-74
2023/10/03 08:44:52;;;;;;;10.73;6.90;;;;;;;;;;5093215;28;20040;-74
2023/10/03 08:47:33;;;;;;;23.17;7.28;;;;;;;;;;5092784;28;20040;-72
2023/10/03 08:50:14;;;;;;;11.65;5.50;;;;;;;;;;5093233;28;20040;-74
2023/10/03 08:52:46;;;;;;;12.68;6.40;;;;;;;;;;5091666;28;20192;-73
2023/10/03 08:55:15;;;;;;;31.08;8.50;;;;;;;;;;5093218;28;20413;-71
2023/10/03 08:57:40;;;;;;;18.58;7.38;;;;;;;;;;5092667;28;20066;-71
2023/10/03 09:00:09;;;;;;;12.35;6.40;;;;;;;;;;5093038;28;20036;-76
2023/10/03 09:02:45;;;;;;;11.48;6.55;;;;;;;;;;5093199;28;20047;-74
2023/10/03 09:05:19;;;;;;;14.07;7.60;;;;;;;;;;5092877;28;20103;-77
2023/10/03 09:07:49;;;;;;;;;;;;;;;;;;5093668;28;20032;-74
2023/10/03 09:10:25;;;;;;;16.25;6.90;;;;;;;;;;5092490;28;19930;-71
2023/10/03 09:12:52;;;;;;;15.60;7.50;;;;;;;;;;5092181;28;20044;-75
2023/10/03 09:15:22;;;;;;;18.92;8.50;;;;;;;;;;5092929;28;20470;-74
2023/10/03 09:17:52;;;;;;;18.65;7.85;;;;;;;;;;5092941;28;20063;-74
2023/10/03 09:20:31;;;;;;;24.92;9.30;;;;;;;;;;5092768;28;20040;-76
2023/10/03 09:23:07;;;;;;;20.63;8.20;;;;;;;;;;5092612;28;20059;-73
2023/10/03 09:25:41;;;;;;;15.82;6.82;;;;;;;;;;5092165;28;20047;-70
2023/10/03 09:28:09;;;;;;;42.50;9.80;;;;;;;;;;5092971;28;20430;-73
2023/10/03 09:30:38;;;;;;;19.42;7.10;;;;;;;;;;5092482;28;20016;-73
2023/10/03 09:33:09;;;;;;;16.98;7.45;;;;;;;;;;5092519;28;20028;-72
2023/10/03 09:35:39;;;;;;;12.95;7.07;;;;;;;;;;5090578;28;20036;-71
2023/10/03 09:38:17;;;;;;;15.90;6.47;;;;;;;;;;5087403;28;20691;-72
2023/10/03 09:40:51;;;;;;;12.80;6.53;;;;;;;;;;5085337;28;20074;-72
2023/10/03 09:43:27;;;;;;;19.73;6.80;;;;;;;;;;5091328;28;20137;-73
2023/10/03 09:46:00;;;;;;;14.75;6.88;;;;;;;;;;5090644;28;20059;-72
2023/10/03 09:48:26;;;;;;;19.52;6.97;;;;;;;;;;5091913;28;20143;-73
2023/10/03 09:50:53;;;;;;;18.58;7.03;;;;;;;;;;5091439;28;20026;-72
2023/10/03 09:53:27;;;;;;;18.65;6.68;;;;;;;;;;5090805;28;20097;-72
2023/10/03 09:55:56;;;;;;;19.17;6.18;;;;;;;;;;5089478;28;20024;-74
2023/10/03 09:58:31;;;;;;;12.18;5.75;;;;;;;;;;5091296;28;20447;-72
2023/10/03 10:00:58;;;;;;;16.17;6.05;;;;;;;;;;5090556;28;20039;-73
2023/10/03 10:03:30;;;;;;;14.25;6.07;;;;;;;;;;5090235;28;20527;-73
2023/10/03 10:05:59;;;;;;;13.13;5.65;;;;;;;;;;5090900;28;20070;-73
2023/10/03 10:08:41;;;;;;;23.52;6.30;;;;;;;;;;5090659;28;20077;-73
2023/10/03 10:11:10;;;;;;;12.30;5.72;;;;;;;;;;5091494;28;20039;-72
2023/10/03 10:13:37;;;;;;;13.77;5.40;;;;;;;;;;5091487;28;20083;-74
2023/10/03 10:16:20;;;;;;;14.10;5.47;;;;;;;;;;5090554;28;20043;-72
2023/10/03 10:18:46;;;;;;;10.02;4.63;;;;;;;;;;5090817;28;20538;-72
2023/10/03 10:21:32;;;;;;;21.20;7.18;;;;;;;;;;5088381;28;20187;-72
2023/10/03 10:24:16;;;;;;;15.35;5.32;;;;;;;;;;5090389;28;20076;-73
2023/10/03 10:26:49;;;;;;;9.38;5.10;;;;;;;;;;5090840;28;20116;-73
2023/10/03 10:29:19;;;;;;;12.07;4.90;;;;;;;;;;5089970;28;20028;-73
2023/10/03 10:31:58;;;;;;;12.45;6.38;;;;;;;;;;5089205;28;20113;-72
2023/10/03 10:34:27;;;;;;;17.05;6.32;;;;;;;;;;5089020;28;20070;-71
2023/10/03 10:36:57;;;;;;;27.38;6.82;;;;;;;;;;5090595;28;20111;-72
2023/10/03 10:39:42;;;;;;;15.40;5.15;;;;;;;;;;5091123;28;20486;-72
2023/10/03 10:42:14;;;;;;;21.98;5.57;;;;;;;;;;5090087;28;20040;-73
2023/10/03 10:44:58;;;;;;;20.90;5.60;;;;;;;;;;5090619;28;20030;-74
2023/10/03 10:47:27;;;;;;;17.73;6.53;;;;;;;;;;5089782;28;20478;-72
2023/10/03 10:50:00;;;;;;;15.90;5.63;;;;;;;;;;5089067;28;20066;-74
2023/10/03 10:52:29;;;;;;;12.15;5.18;;;;;;;;;;5091274;28;20036;-73
2023/10/03 10:54:56;;;;;;;11.48;4.82;;;;;;;;;;5091788;28;20020;-73
2023/10/03 10:57:26;;;;;;;13.70;5.13;;;;;;;;;;5091210;28;20485;-76
2023/10/03 10:59:53;;;;;;;25.60;8.15;;;;;;;;;;5092514;28;20131;-73
2023/10/03 11:02:27;;;;;;;17.35;6.68;;;;;;;;;;5091652;28;20034;-74
2023/10/03 11:04:58;;;;;;;13.05;5.55;;;;;;;;;;5090786;28;20042;-74
2023/10/03 11:07:26;;;;;;;21.48;5.43;;;;;;;;;;5089857;28;20032;-73
2023/10/03 11:09:54;;;;;;;14.20;5.22;;;;;;;;;;5091044;28;20020;-73
2023/10/03 11:12:23;;;;;;;31.10;10.95;;;;;;;;;;5090725;28;20034;-73
2023/10/03 11:14:49;;;;;;;19.20;8.07;;;;;;;;;;5090725;28;20028;-73
2023/10/03 11:17:15;;;;;;;15.23;5.38;;;;;;;;;;5090777;28;20474;-73
2023/10/03 11:19:41;;;;;;;15.07;6.47;;;;;;;;;;5091308;28;20434;-74
2023/10/03 11:22:11;;;;;;;10.95;5.38;;;;;;;;;;5091143;28;20028;-72
2023/10/03 11:24:38;;;;;;;19.25;6.85;;;;;;;;;;5091466;28;20477;-73
2023/10/03 11:27:03;;;;;;;13.15;5.80;;;;;;;;;;5089683;28;20039;-73
2023/10/03 11:29:46;;;;;;;18.45;5.55;;;;;;;;;;5091344;28;20032;-73
2023/10/03 11:32:23;;;;;;;13.45;5.10;;;;;;;;;;5090963;28;20047;-72
2023/10/03 11:34:49;;;;;;;17.15;5.75;;;;;;;;;;5090895;28;20032;-71
2023/10/03 11:37:27;;;;;;;17.15;4.90;;;;;;;;;;5091059;28;20099;-74
2023/10/03 11:39:53;;;;;;;12.40;5.28;;;;;;;;;;5091052;28;20032;-73
2023/10/03 11:42:25;;;;;;;15.50;5.22;;;;;;;;;;5095351;28;20365;-73
2023/10/03 11:45:01;;;;;;;12.55;4.70;;;;;;;;;;5093487;28;20043;-73
2023/10/03 11:47:27;;;;;;;20.15;6.07;;;;;;;;;;5094729;28;20080;-74
2023/10/03 11:49:53;;;;;;;18.10;5.30;;;;;;;;;;5094799;28;20165;-73
2023/10/03 11:52:22;;;;;;;13.35;5.13;;;;;;;;;;5094631;28;20047;-73
2023/10/03 11:54:47;;;;;;;9.85;4.65;;;;;;;;;;5094000;28;20110;-72
2023/10/03 11:57:13;;;;;;;11.80;4.38;;;;;;;;;;5094739;28;20170;-73
2023/10/03 11:59:40;;;;;;;17.83;6.32;;;;;;;;;;5110368;28;20039;-72
2023/10/03 12:02:06;;;;;;;12.85;4.47;;;;;;;;;;5094495;28;20039;-73
2023/10/03 12:04:34;;;;;;;9.40;4.68;;;;;;;;;;5093228;28;20024;-73
2023/10/03 12:07:01;;;;;;;8.88;4.95;;;;;;;;;;5094408;28;20032;-72
2023/10/03 12:09:27;;;;;;;13.73;6.20;;;;;;;;;;5094218;28;20103;-73
2023/10/03 12:11:53;;;;;;;10.75;5.05;;;;;;;;;;5093234;28;20028;-72
2023/10/03 12:14:18;;;;;;;12.95;4.45;;;;;;;;;;5094340;28;20097;-73
2023/10/03 12:16:51;;;;;;;10.68;5.00;;;;;;;;;;5093209;28;20038;-73
2023/10/03 12:19:21;;;;;;;12.25;4.22;;;;;;;;;;5094644;28;20039;-73
2023/10/03 12:21:47;;;;;;;22.50;4.97;;;;;;;;;;5094386;28;20040;-72
2023/10/03 12:24:14;;;;;;;11.82;4.63;;;;;;;;;;5092999;28;20501;-72
2023/10/03 12:26:40;;;;;;;13.77;5.22;;;;;;;;;;5092713;28;20036;-72
2023/10/03 12:29:07;;;;;;;12.85;5.60;;;;;;;;;;5094383;28;20091;-73
2023/10/03 12:31:33;;;;;;;12.93;5.05;;;;;;;;;;5094150;28;20028;-72
2023/10/03 12:34:01;;;;;;;8.48;5.05;;;;;;;;;;5094013;28;20020;-73
2023/10/03 12:36:32;;;;;;;8.52;4.47;;;;;;;;;;5093745;28;20028;-72
2023/10/03 12:39:10;;;;;;;10.05;4.07;;;;;;;;;;5092433;28;20036;-72
2023/10/03 12:41:37;;;;;;;11.57;4.60;;;;;;;;;;5093037;28;20028;-72
2023/10/03 12:44:04;;;;;;;13.35;5.05;;;;;;;;;;5093972;28;20422;-72
2023/10/03 12:46:30;;;;;;;13.60;5.40;;;;;;;;;;5093999;28;20111;-71
2023/10/03 12:48:56;;;;;;;13.65;5.03;;;;;;;;;;5092407;28;20023;-70
2023/10/03 12:51:22;;;;;;;8.23;4.38;;;;;;;;;;5091911;28;20032;-70
2023/10/03 12:53:51;;;;;;;8.27;4.35;;;;;;;;;;5092838;28;20020;-70
2023/10/03 12:56:17;;;;;;;9.40;4.20;;;;;;;;;;5093263;28;20032;-71
2023/10/03 12:58:43;;;;;;;9.38;3.67;;;;;;;;;;5093387;28;20035;-72
2023/10/03 13:01:12;;;;;;;10.27;4.65;;;;;;;;;;5093266;28;20039;-72
2023/10/03 13:03:39;;;;;;;13.23;5.40;;;;;;;;;;5093016;28;20024;-72
2023/10/03 13:06:06;;;;;;;11.98;5.03;;;;;;;;;;5093086;28;20032;-72
2023/10/03 13:08:32;;;;;;;13.13;4.57;;;;;;;;;;5093149;28;20091;-71
2023/10/03 13:11:05;;;;;;;14.93;5.10;;;;;;;;;;5093439;28;20439;-73
2023/10/03 13:13:32;;;;;;;11.95;4.20;;;;;;;;;;5091619;28;20028;-72
2023/10/03 13:15:57;;;;;;;11.25;4.03;;;;;;;;;;5091457;28;20141;-70
2023/10/03 13:18:23;;;;;;;10.93;4.72;;;;;;;;;;5091649;28;20096;-73
2023/10/03 13:20:50;;;;;;;6.88;3.63;;;;;;;;;;5092825;28;20024;-73
2023/10/03 13:23:16;;;;;;;11.85;4.65;;;;;;;;;;5093079;28;20383;-72
2023/10/03 13:25:41;;;;;;;11.35;5.10;;;;;;;;;;5091331;28;20073;-71
2023/10/03 13:28:10;;;;;;;8.52;4.15;;;;;;;;;;5091763;28;20056;-74
2023/10/03 13:30:39;;;;;;;8.75;4.10;;;;;;;;;;5092666;28;20086;-73
2023/10/03 13:33:05;;;;;;;11.57;4.40;;;;;;;;;;5093137;28;20036;-72
2023/10/03 13:35:33;;;;;;;10.27;4.32;;;;;;;;;;5092874;28;20035;-72
2023/10/03 13:38:00;;;;;;;9.52;4.38;;;;;;;;;;5092669;28;20024;-72
2023/10/03 13:40:26;;;;;;;13.48;4.50;;;;;;;;;;5092348;28;20020;-73
2023/10/03 13:42:52;;;;;;;7.82;4.15;;;;;;;;;;5087895;28;20035;-72
2023/10/03 13:45:19;;;;;;;11.45;4.88;;;;;;;;;;5104434;28;20028;-73
2023/10/03 13:47:45;;;;;;;11.93;4.57;;;;;;;;;;5092523;28;20065;-72
2023/10/03 13:50:12;;;;;;;9.73;4.25;;;;;;;;;;5092937;28;20105;-72
2023/10/03 13:52:38;;;;;;;17.15;4.95;;;;;;;;;;5092687;28;20055;-71
2023/10/03 13:55:06;;;;;;;12.82;4.68;;;;;;;;;;5092479;28;20346;-72
2023/10/03 13:57:36;;;;;;;7.93;4.22;;;;;;;;;;5090982;28;20547;-72
2023/10/03 14:00:06;;;;;;;13.63;4.10;;;;;;;;;;5092428;28;20030;-73
2023/10/03 14:02:34;;;;;;;15.13;4.90;;;;;;;;;;5092168;28;20061;-72
2023/10/03 14:05:03;;;;;;;7.35;3.80;;;;;;;;;;5092444;28;20394;-72
2023/10/03 14:07:31;;;;;;;10.18;4.10;;;;;;;;;;5091879;28;20067;-73
2023/10/03 14:09:59;;;;;;;14.00;4.63;;;;;;;;;;5092035;28;20027;-71
2023/10/03 14:12:27;;;;;;;8.73;4.20;;;;;;;;;;5091938;28;20115;-73
2023/10/03 14:14:53;;;;;;;9.55;4.30;;;;;;;;;;5091823;28;20031;-73
2023/10/03 14:17:18;;;;;;;7.68;4.05;;;;;;;;;;5092065;28;20035;-72
2023/10/03 14:19:44;;;;;;;7.97;3.80;;;;;;;;;;5092069;28;20137;-73
2023/10/03 14:22:10;;;;;;;8.93;3.72;;;;;;;;;;5074107;28;20070;-74
2023/10/03 14:24:35;;;;;;;11.05;4.30;;;;;;;;;;5108409;28;20362;-72
2023/10/03 14:27:03;;;;;;;9.40;3.78;;;;;;;;;;5111831;28;20036;-72
2023/10/03 14:29:29;;;;;;;13.57;4.75;;;;;;;;;;5112244;28;20435;-73
2023/10/03 14:31:55;;;;;;;8.35;4.05;;;;;;;;;;5112046;28;20028;-72
2023/10/03 14:34:20;;;;;;;14.02;5.50;;;;;;;;;;5112108;28;20055;-73
2023/10/03 14:36:46;;;;;;;6.70;3.90;;;;;;;;;;5112115;28;20118;-71
2023/10/03 14:39:12;;;;;;;11.00;4.78;;;;;;;;;;5112125;28;20019;-71
2023/10/03 14:41:39;;;;;;;12.13;4.60;;;;;;;;;;5111724;28;20036;-72
2023/10/03 14:44:05;;;;;;;7.40;3.63;;;;;;;;;;5111774;28;20023;-72
2023/10/03 14:46:32;;;;;;;10.88;4.43;;;;;;;;;;5111404;28;20401;-72
2023/10/03 14:48:57;;;;;;;7.68;3.67;;;;;;;;;;5111675;28;20119;-70